Time;durP1;ratioP1;P1;durP2;ratioP2;P2;SDS_P1;SDS_P2;PMS_P1;PMS_P2;Temp;Humidity;BMP_temperature;BMP_pressure;BME280_temperature;BME280_humidity;BME280_pressure;Samples;Min_cycle;Max_cycle;Signal;HPM_P1;HPM_P2
2023/08/27 00:00:59;;;;;;;7.85;4.38;;;14.90;99.90;;;;;;5039758;28;20029;-52
2023/08/27 00:03:25;;;;;;;8.15;4.30;;;14.90;99.90;;;;;;5042228;28;20040;-54
2023/08/27 00:05:51;;;;;;;6.88;4.13;;;14.90;99.90;;;;;;5038552;28;20491;-56
2023/08/27 00:08:17;;;;;;;9.45;4.80;;;14.80;99.90;;;;;;5039299;28;20036;-55
2023/08/27 00:10:42;;;;;;;8.13;4.88;;;14.80;99.90;;;;;;5040228;28;20017;-56
2023/08/27 00:13:08;;;;;;;8.43;5.40;;;14.80;99.90;;;;;;5045407;28;20087;-56
2023/08/27 00:15:33;;;;;;;5.03;3.92;;;14.90;99.90;;;;;;5036049;28;20036;-53
2023/08/27 00:17:59;;;;;;;10.88;4.80;;;14.80;99.90;;;;;;5040855;28;20040;-55
2023/08/27 00:20:24;;;;;;;12.82;4.65;;;14.80;99.90;;;;;;5036624;28;20483;-54
2023/08/27 00:22:50;;;;;;;10.75;4.55;;;14.80;99.90;;;;;;5040653;28;20034;-57
2023/08/27 00:25:16;;;;;;;10.95;4.15;;;14.80;99.90;;;;;;5039519;28;20018;-59
2023/08/27 00:27:42;;;;;;;6.65;4.07;;;14.80;99.90;;;;;;5038892;28;20028;-57
2023/08/27 00:30:08;;;;;;;7.10;4.32;;;14.70;99.90;;;;;;5037961;28;20035;-54
2023/08/27 00:32:34;;;;;;;7.85;3.42;;;14.70;99.90;;;;;;5042488;28;20029;-54
2023/08/27 00:35:00;;;;;;;5.47;4.00;;;14.70;99.90;;;;;;5040297;28;20017;-54
2023/08/27 00:37:26;;;;;;;7.35;3.50;;;14.70;99.90;;;;;;5040430;28;20029;-54
2023/08/27 00:39:52;;;;;;;11.10;4.20;;;14.50;99.90;;;;;;5041270;28;20021;-54
2023/08/27 00:42:18;;;;;;;5.45;3.70;;;14.50;99.90;;;;;;5044085;28;20104;-54
2023/08/27 00:44:44;;;;;;;8.40;4.57;;;14.50;99.90;;;;;;5046105;28;20017;-53
2023/08/27 00:47:11;;;;;;;11.05;4.63;;;14.40;99.90;;;;;;5043504;28;20021;-56
2023/08/27 00:49:37;;;;;;;8.35;5.07;;;14.40;99.90;;;;;;5042080;28;20055;-53
2023/08/27 00:52:05;;;;;;;7.03;4.55;;;14.40;99.90;;;;;;5041199;28;20103;-56
2023/08/27 00:54:31;;;;;;;9.07;5.72;;;14.30;99.90;;;;;;5044777;28;20025;-56
2023/08/27 00:56:57;;;;;;;7.35;4.38;;;14.30;99.90;;;;;;5044136;28;20024;-54
2023/08/27 00:59:23;;;;;;;9.00;4.95;;;14.30;99.90;;;;;;5034123;28;20720;-55
2023/08/27 01:01:50;;;;;;;9.10;4.30;;;14.30;99.90;;;;;;5038782;28;20029;-57
2023/08/27 01:04:15;;;;;;;8.70;4.53;;;14.30;99.90;;;;;;5033757;28;20029;-56
2023/08/27 01:06:41;;;;;;;10.90;4.78;;;14.20;99.90;;;;;;5041944;28;20025;-54
2023/08/27 01:09:18;;;;;;;6.07;3.83;;;14.30;99.90;;;;;;5041037;28;20108;-55
2023/08/27 01:12:02;;;;;;;4.03;3.47;;;14.10;99.90;;;;;;5036329;28;20083;-55
2023/08/27 01:14:32;;;;;;;8.40;4.00;;;14.10;99.90;;;;;;5043374;28;20036;-54
2023/08/27 01:17:00;;;;;;;8.85;3.80;;;14.20;99.90;;;;;;5037891;28;20108;-55
2023/08/27 01:19:27;;;;;;;7.32;3.63;;;14.10;99.90;;;;;;5040181;28;20035;-55
2023/08/27 01:21:52;;;;;;;7.22;3.75;;;14.10;99.90;;;;;;5040613;28;20029;-55
2023/08/27 01:24:18;;;;;;;7.93;3.72;;;14.10;99.90;;;;;;5043232;28;20037;-56
2023/08/27 01:26:53;;;;;;;5.85;3.95;;;14.10;99.90;;;;;;5036888;28;20108;-56
2023/08/27 01:29:44;;;;;;;6.68;3.15;;;14.10;99.90;;;;;;5039584;28;20506;-53
2023/08/27 01:32:28;;;;;;;7.05;3.28;;;14.10;99.90;;;;;;5039128;28;20597;-56
2023/08/27 01:34:55;;;;;;;2.75;2.15;;;14.10;99.90;;;;;;5040256;28;20032;-54
2023/08/27 01:37:21;;;;;;;5.60;3.25;;;14.00;99.90;;;;;;5042785;28;20035;-54
2023/08/27 01:39:56;;;;;;;7.50;3.13;;;14.00;99.90;;;;;;5037930;28;20060;-55
2023/08/27 01:42:21;;;;;;;8.90;3.10;;;14.10;99.90;;;;;;5036260;28;20053;-54
2023/08/27 01:44:47;;;;;;;5.05;3.50;;;14.10;99.90;;;;;;5039269;28;20510;-54
2023/08/27 01:47:13;;;;;;;8.15;3.40;;;14.10;99.90;;;;;;5036217;28;20029;-58
2023/08/27 01:49:38;;;;;;;4.03;3.10;;;14.10;99.90;;;;;;5037202;28;20034;-54
2023/08/27 01:52:04;;;;;;;3.60;3.00;;;14.10;99.90;;;;;;5045387;28;20052;-54
2023/08/27 01:54:33;;;;;;;7.72;3.13;;;14.10;99.90;;;;;;5040434;28;20379;-56
2023/08/27 01:56:58;;;;;;;6.90;3.78;;;14.10;99.90;;;;;;5040210;28;20028;-54
2023/08/27 01:59:24;;;;;;;11.07;3.08;;;14.10;99.90;;;;;;5039451;28;20040;-55
2023/08/27 02:01:49;;;;;;;7.05;3.17;;;14.00;99.90;;;;;;5036599;28;20039;-57
2023/08/27 02:04:15;;;;;;;6.90;3.25;;;14.00;99.90;;;;;;5037750;28;20031;-55
2023/08/27 02:06:40;;;;;;;5.82;3.33;;;14.00;99.90;;;;;;5041721;28;20045;-53
2023/08/27 02:09:06;;;;;;;5.97;3.60;;;13.90;99.90;;;;;;5036656;28;20043;-56
2023/08/27 02:11:31;;;;;;;6.32;3.10;;;14.00;99.90;;;;;;5041304;28;20032;-55
2023/08/27 02:13:57;;;;;;;9.10;3.53;;;14.00;99.90;;;;;;5041382;28;20449;-54
2023/08/27 02:16:23;;;;;;;8.10;3.45;;;14.00;99.90;;;;;;5042345;28;20040;-55
2023/08/27 02:18:49;;;;;;;11.65;3.55;;;13.90;99.90;;;;;;5033169;28;20031;-54
2023/08/27 02:21:14;;;;;;;6.60;3.28;;;13.80;99.90;;;;;;5044898;28;20017;-56
2023/08/27 02:23:40;;;;;;;5.38;3.70;;;13.80;99.90;;;;;;5030835;28;20404;-55
2023/08/27 02:26:05;;;;;;;8.00;4.25;;;13.90;99.90;;;;;;5044523;28;20119;-56
2023/08/27 02:28:32;;;;;;;6.40;3.70;;;13.80;99.90;;;;;;5032144;28;20040;-58
2023/08/27 02:30:58;;;;;;;7.32;3.92;;;13.80;99.90;;;;;;5045860;28;20028;-53
2023/08/27 02:33:25;;;;;;;10.43;4.03;;;13.80;99.90;;;;;;5037918;28;20419;-54
2023/08/27 02:35:51;;;;;;;9.02;3.88;;;13.80;99.90;;;;;;5034308;28;20211;-53
2023/08/27 02:38:18;;;;;;;5.40;3.72;;;13.70;99.90;;;;;;5036182;28;20491;-54
2023/08/27 02:40:43;;;;;;;12.98;4.65;;;13.70;99.90;;;;;;5039238;28;20112;-57
2023/08/27 02:43:09;;;;;;;11.15;4.55;;;13.70;99.90;;;;;;5040829;28;20178;-55
2023/08/27 02:45:35;;;;;;;5.75;4.13;;;13.70;99.90;;;;;;5035412;28;20025;-56
2023/08/27 02:48:00;;;;;;;9.68;4.35;;;13.70;99.90;;;;;;5039474;28;20029;-57
2023/08/27 02:50:26;;;;;;;7.28;4.80;;;13.70;99.90;;;;;;5037587;28;20053;-56
2023/08/27 02:52:51;;;;;;;7.50;5.35;;;13.70;99.90;;;;;;5040469;28;20103;-56
2023/08/27 02:55:17;;;;;;;11.15;5.40;;;13.80;99.90;;;;;;5040054;28;20509;-56
2023/08/27 02:57:42;;;;;;;11.35;5.70;;;13.80;99.90;;;;;;5038159;28;20393;-56
2023/08/27 03:00:09;;;;;;;8.45;4.93;;;13.80;99.90;;;;;;5036057;28;20419;-57
2023/08/27 03:02:34;;;;;;;13.68;5.07;;;13.90;99.90;;;;;;5038508;28;20061;-56
2023/08/27 03:05:04;;;;;;;9.60;4.93;;;13.90;99.90;;;;;;5040404;28;20053;-56
2023/08/27 03:07:29;;;;;;;5.75;4.18;;;13.90;99.90;;;;;;5040367;28;20105;-56
2023/08/27 03:09:55;;;;;;;9.10;4.85;;;13.90;99.90;;;;;;5034124;28;20105;-55
2023/08/27 03:12:20;;;;;;;13.27;5.18;;;14.00;99.90;;;;;;5041047;28;20051;-55
2023/08/27 03:14:46;;;;;;;8.20;4.82;;;13.90;99.90;;;;;;5036102;28;20030;-55
2023/08/27 03:17:11;;;;;;;9.38;4.82;;;13.90;99.90;;;;;;5038474;28;20045;-56
2023/08/27 03:19:37;;;;;;;6.95;4.70;;;13.90;99.90;;;;;;5033098;28;20068;-53
2023/08/27 03:22:03;;;;;;;8.65;5.25;;;13.90;99.90;;;;;;5038782;28;20057;-54
2023/08/27 03:24:28;;;;;;;9.63;4.35;;;13.90;99.90;;;;;;5035882;28;20064;-57
2023/08/27 03:26:54;;;;;;;10.63;5.25;;;13.90;99.90;;;;;;5042067;28;20091;-57
2023/08/27 03:29:20;;;;;;;7.45;4.57;;;13.90;99.90;;;;;;5039778;28;20052;-56
2023/08/27 03:31:46;;;;;;;10.77;4.85;;;13.90;99.90;;;;;;5038411;28;20025;-58
2023/08/27 03:34:12;;;;;;;7.40;4.57;;;13.90;99.90;;;;;;5031591;28;20036;-56
2023/08/27 03:36:37;;;;;;;6.82;3.75;;;13.90;99.90;;;;;;5038400;28;20025;-56
2023/08/27 03:39:04;;;;;;;7.47;4.93;;;14.00;99.90;;;;;;5034430;28;20040;-57
2023/08/27 03:41:30;;;;;;;5.72;4.30;;;14.00;99.90;;;;;;5041574;28;20475;-53
2023/08/27 03:43:55;;;;;;;4.68;4.10;;;14.00;99.90;;;;;;5036997;28;20053;-55
2023/08/27 03:46:21;;;;;;;7.60;4.45;;;14.00;99.90;;;;;;5040523;28;20584;-58
2023/08/27 03:48:47;;;;;;;8.57;4.82;;;14.00;99.90;;;;;;5036639;28;20119;-58
2023/08/27 03:51:12;;;;;;;6.43;4.65;;;14.00;99.90;;;;;;5040877;28;20022;-53
2023/08/27 03:53:38;;;;;;;11.50;5.70;;;14.10;99.90;;;;;;5037661;28;20025;-56
2023/08/27 03:56:04;;;;;;;9.40;4.97;;;14.10;99.90;;;;;;5048285;28;20103;-56
2023/08/27 03:58:30;;;;;;;8.52;4.85;;;14.10;99.90;;;;;;5034288;28;20108;-54
2023/08/27 04:00:55;;;;;;;6.07;4.55;;;14.20;99.90;;;;;;5037766;28;20029;-53
2023/08/27 04:03:21;;;;;;;7.18;3.80;;;14.30;99.90;;;;;;5041813;28;20040;-56
2023/08/27 04:05:49;;;;;;;7.18;4.18;;;14.30;99.90;;;;;;5044722;28;20029;-56
2023/08/27 04:08:16;;;;;;;8.48;4.65;;;14.30;99.90;;;;;;5033615;28;20025;-56
2023/08/27 04:10:52;;;;;;;10.52;5.10;;;14.40;99.90;;;;;;5035354;28;20022;-55
2023/08/27 04:13:18;;;;;;;9.25;4.22;;;14.40;99.90;;;;;;5038850;28;20032;-53
2023/08/27 04:15:57;;;;;;;6.13;4.35;;;14.40;99.90;;;;;;5040617;28;20048;-55
2023/08/27 04:18:22;;;;;;;12.25;4.50;;;14.50;99.90;;;;;;5038435;28;20103;-58
2023/08/27 04:20:49;;;;;;;9.63;4.93;;;14.50;99.90;;;;;;5037845;28;20472;-55
2023/08/27 04:23:14;;;;;;;6.85;4.65;;;14.50;99.90;;;;;;5041825;28;20483;-53
2023/08/27 04:25:43;;;;;;;6.55;4.75;;;14.50;99.90;;;;;;5043747;28;20022;-54
2023/08/27 04:28:09;;;;;;;7.65;4.40;;;14.50;99.90;;;;;;5040458;28;20029;-52
2023/08/27 04:30:35;;;;;;;7.07;4.50;;;14.60;99.90;;;;;;5038611;28;20078;-53
2023/08/27 04:33:00;;;;;;;8.00;4.60;;;14.60;99.90;;;;;;5040243;28;20545;-54
2023/08/27 04:35:26;;;;;;;10.90;4.15;;;14.60;99.90;;;;;;5036998;28;20045;-56
2023/08/27 04:37:51;;;;;;;8.43;4.10;;;14.60;99.90;;;;;;5042001;28;20025;-53
2023/08/27 04:40:17;;;;;;;11.65;4.00;;;14.80;99.90;;;;;;5039191;28;20033;-53
2023/08/27 04:42:42;;;;;;;11.13;4.10;;;14.80;99.90;;;;;;5042026;28;20041;-53
2023/08/27 04:45:09;;;;;;;9.90;4.00;;;14.80;99.90;;;;;;5039141;28;20031;-56
2023/08/27 04:47:35;;;;;;;11.63;4.13;;;14.80;99.90;;;;;;5038623;28;20144;-53
2023/08/27 04:50:01;;;;;;;7.43;4.35;;;14.90;99.90;;;;;;5033228;28;20053;-53
2023/08/27 04:52:26;;;;;;;12.13;3.88;;;14.80;99.90;;;;;;5037042;28;20029;-57
2023/08/27 04:54:52;;;;;;;7.55;4.35;;;14.80;99.90;;;;;;5035964;28;20558;-56
2023/08/27 04:57:17;;;;;;;5.93;3.30;;;14.80;99.90;;;;;;5051095;28;20029;-53
2023/08/27 04:59:43;;;;;;;5.45;3.58;;;14.90;99.90;;;;;;5041381;28;20029;-58
2023/08/27 05:02:08;;;;;;;9.30;3.25;;;15.00;99.90;;;;;;5049580;28;20025;-56
2023/08/27 05:04:34;;;;;;;8.55;3.65;;;15.00;99.90;;;;;;5037592;28;20483;-54
2023/08/27 05:06:59;;;;;;;5.55;2.85;;;14.90;99.90;;;;;;5047029;28;20178;-57
2023/08/27 05:09:26;;;;;;;7.93;3.20;;;14.90;99.90;;;;;;5036864;28;20021;-56
2023/08/27 05:11:51;;;;;;;5.78;2.65;;;14.90;99.90;;;;;;5038546;28;20475;-58
2023/08/27 05:14:17;;;;;;;9.52;2.45;;;14.90;99.90;;;;;;5038430;28;20040;-55
2023/08/27 05:16:42;;;;;;;4.70;2.33;;;15.00;99.90;;;;;;5041460;28;20116;-57
2023/08/27 05:19:09;;;;;;;5.45;3.13;;;14.90;99.90;;;;;;5041028;28;20027;-57
2023/08/27 05:21:34;;;;;;;5.80;2.70;;;14.90;99.90;;;;;;5035350;28;20029;-54
2023/08/27 05:24:00;;;;;;;11.48;2.50;;;15.00;99.90;;;;;;5036977;28;20391;-58
2023/08/27 05:26:25;;;;;;;5.72;3.20;;;15.10;99.90;;;;;;5038138;28;20025;-54
2023/08/27 05:28:51;;;;;;;4.55;2.92;;;15.10;99.90;;;;;;5039615;28;20033;-56
2023/08/27 05:31:16;;;;;;;5.80;2.60;;;15.00;99.90;;;;;;5039505;28;20067;-54
2023/08/27 05:33:42;;;;;;;5.03;3.45;;;15.00;99.90;;;;;;5046037;28;20067;-54
2023/08/27 05:36:08;;;;;;;3.45;2.55;;;15.00;99.90;;;;;;5041667;28;20525;-57
2023/08/27 05:38:33;;;;;;;11.02;2.88;;;15.10;99.90;;;;;;5037331;28;20437;-58
2023/08/27 05:40:59;;;;;;;4.18;3.00;;;15.10;99.90;;;;;;5037233;28;20035;-58
2023/08/27 05:43:24;;;;;;;4.22;3.10;;;15.10;99.90;;;;;;5042503;28;20222;-57
2023/08/27 05:45:50;;;;;;;5.65;3.00;;;15.00;99.90;;;;;;5040864;28;20013;-57
2023/08/27 05:48:15;;;;;;;4.75;3.15;;;15.00;99.90;;;;;;5041205;28;20091;-59
2023/08/27 05:50:41;;;;;;;10.55;3.17;;;15.00;99.90;;;;;;5038591;28;20057;-56
2023/08/27 05:53:06;;;;;;;6.72;2.85;;;14.90;99.90;;;;;;5036974;28;20120;-55
2023/08/27 05:55:33;;;;;;;4.22;2.55;;;15.00;99.90;;;;;;5041114;28;20029;-58
2023/08/27 05:57:59;;;;;;;5.88;2.95;;;15.00;99.90;;;;;;5044365;28;20025;-56
2023/08/27 06:00:25;;;;;;;5.45;3.20;;;15.10;99.90;;;;;;5039538;28;20024;-57
2023/08/27 06:02:50;;;;;;;6.78;2.95;;;15.10;99.90;;;;;;5040072;28;20396;-55
2023/08/27 06:05:16;;;;;;;5.00;3.22;;;15.00;99.90;;;;;;5043831;28;20506;-58
2023/08/27 06:07:41;;;;;;;5.53;2.65;;;15.00;99.90;;;;;;5039899;28;20021;-55
2023/08/27 06:10:08;;;;;;;6.78;3.00;;;15.10;99.90;;;;;;5044832;28;20560;-58
2023/08/27 06:12:33;;;;;;;5.82;3.00;;;15.20;99.90;;;;;;5037859;28;20032;-54
2023/08/27 06:14:59;;;;;;;4.63;2.85;;;15.20;99.90;;;;;;5039222;28;20399;-58
2023/08/27 06:17:24;;;;;;;4.07;2.92;;;15.20;99.90;;;;;;5048950;28;20028;-57
2023/08/27 06:19:50;;;;;;;6.10;3.33;;;15.30;99.90;;;;;;5038890;28;20404;-52
2023/08/27 06:22:16;;;;;;;5.85;2.90;;;15.40;99.90;;;;;;5044068;28;20110;-55
2023/08/27 06:24:42;;;;;;;5.07;2.95;;;15.50;99.90;;;;;;5037545;28;20025;-56
2023/08/27 06:27:07;;;;;;;4.05;2.50;;;15.60;99.90;;;;;;5043476;28;20454;-58
2023/08/27 06:29:33;;;;;;;6.13;2.75;;;15.70;99.90;;;;;;5039109;28;20116;-56
2023/08/27 06:31:59;;;;;;;8.38;2.83;;;15.70;99.90;;;;;;5042468;28;20020;-56
2023/08/27 06:34:24;;;;;;;5.32;3.03;;;15.70;99.90;;;;;;5039645;28;20460;-56
2023/08/27 06:36:50;;;;;;;4.03;2.45;;;15.80;99.90;;;;;;5043384;28;20087;-59
2023/08/27 06:39:15;;;;;;;5.88;3.10;;;15.90;99.90;;;;;;5037927;28;20408;-54
2023/08/27 06:41:41;;;;;;;4.70;2.42;;;15.90;99.90;;;;;;5038825;28;20491;-56
2023/08/27 06:44:06;;;;;;;8.38;2.95;;;15.90;99.90;;;;;;5051238;28;20035;-58
2023/08/27 06:46:32;;;;;;;3.45;2.17;;;16.10;99.90;;;;;;5052865;28;20100;-54
2023/08/27 06:48:58;;;;;;;7.18;2.78;;;16.10;99.90;;;;;;5047785;28;20027;-55
2023/08/27 06:51:24;;;;;;;2.58;2.05;;;16.10;99.90;;;;;;5043559;28;20483;-56
2023/08/27 06:53:49;;;;;;;5.95;2.83;;;16.20;99.90;;;;;;5037623;28;20060;-54
2023/08/27 06:56:15;;;;;;;6.10;2.83;;;16.10;99.90;;;;;;5042260;28;20025;-58
2023/08/27 06:58:40;;;;;;;5.32;2.22;;;16.10;99.90;;;;;;5038915;28;20021;-55
2023/08/27 07:01:06;;;;;;;5.78;1.73;;;16.20;99.90;;;;;;5045827;28;20033;-54
2023/08/27 07:03:32;;;;;;;6.78;2.20;;;16.20;99.90;;;;;;5046731;28;20028;-56
2023/08/27 07:05:57;;;;;;;4.95;1.90;;;16.30;99.90;;;;;;5039106;28;20487;-57
2023/08/27 07:08:23;;;;;;;3.05;1.60;;;16.30;99.90;;;;;;5043000;28;20017;-56
2023/08/27 07:10:49;;;;;;;6.30;2.13;;;16.40;99.90;;;;;;5044460;28;20472;-54
2023/08/27 07:13:14;;;;;;;5.40;1.70;;;16.40;99.90;;;;;;5035809;28;20017;-54
2023/08/27 07:15:40;;;;;;;6.38;2.13;;;16.40;99.90;;;;;;5040538;28;20476;-58
2023/08/27 07:18:05;;;;;;;3.30;1.95;;;16.60;99.90;;;;;;5051435;28;20026;-57
2023/08/27 07:20:32;;;;;;;2.35;1.75;;;16.60;99.90;;;;;;5038293;28;20033;-59
2023/08/27 07:22:58;;;;;;;7.07;2.13;;;16.60;99.90;;;;;;5043401;28;20086;-54
2023/08/27 07:25:24;;;;;;;6.85;2.40;;;16.70;99.90;;;;;;5046251;28;20104;-54
2023/08/27 07:27:49;;;;;;;3.00;1.70;;;16.70;99.90;;;;;;5041976;28;20014;-54
2023/08/27 07:30:15;;;;;;;11.68;2.60;;;16.80;99.90;;;;;;5046556;28;20055;-58
2023/08/27 07:32:41;;;;;;;2.40;1.65;;;16.80;99.90;;;;;;5039575;28;20066;-57
2023/08/27 07:35:07;;;;;;;6.80;1.77;;;16.70;99.90;;;;;;5047022;28;20403;-54
2023/08/27 07:37:33;;;;;;;2.67;1.80;;;16.70;99.90;;;;;;5041116;28;20031;-56
2023/08/27 07:39:58;;;;;;;3.92;1.83;;;16.60;99.90;;;;;;5041593;28;20021;-56
2023/08/27 07:42:24;;;;;;;3.35;1.95;;;16.70;99.90;;;;;;5031693;28;20104;-57
2023/08/27 07:44:49;;;;;;;5.35;2.20;;;16.90;99.90;;;;;;5039884;28;20053;-57
2023/08/27 07:47:15;;;;;;;4.35;2.10;;;16.90;99.90;;;;;;5038429;28;20057;-55
2023/08/27 07:49:40;;;;;;;8.80;2.58;;;17.00;99.90;;;;;;5036263;28;20487;-56
2023/08/27 07:52:06;;;;;;;5.60;2.58;;;17.10;99.90;;;;;;5040676;28;20112;-59
2023/08/27 07:54:32;;;;;;;4.75;1.98;;;17.10;99.90;;;;;;5038288;28;20032;-57
2023/08/27 07:56:57;;;;;;;5.65;2.40;;;17.10;99.90;;;;;;5039984;28;20104;-54
2023/08/27 07:59:23;;;;;;;5.15;2.08;;;17.20;99.90;;;;;;5035767;28;20041;-59
2023/08/27 08:01:48;;;;;;;6.53;2.80;;;17.30;99.90;;;;;;5039913;28;20552;-58
2023/08/27 08:04:14;;;;;;;8.30;2.80;;;17.20;99.90;;;;;;5044752;28;20476;-56
2023/08/27 08:06:39;;;;;;;8.30;3.17;;;17.20;99.90;;;;;;5039496;28;20029;-57
2023/08/27 08:09:05;;;;;;;6.70;2.42;;;17.30;99.90;;;;;;5037088;28;20052;-58
2023/08/27 08:11:30;;;;;;;6.55;2.45;;;17.40;99.90;;;;;;5040994;28;20021;-56
2023/08/27 08:13:56;;;;;;;8.05;2.20;;;17.40;99.90;;;;;;5040213;28;20387;-54
2023/08/27 08:16:23;;;;;;;8.85;2.75;;;17.40;99.90;;;;;;5037673;28;20399;-56
2023/08/27 08:18:48;;;;;;;5.88;2.70;;;17.50;99.90;;;;;;5034693;28;20033;-56
2023/08/27 08:21:14;;;;;;;5.97;2.05;;;17.50;99.90;;;;;;5038967;28;20040;-57
2023/08/27 08:23:40;;;;;;;3.22;1.92;;;17.60;99.90;;;;;;5037140;28;20121;-57
2023/08/27 08:26:06;;;;;;;5.53;2.80;;;17.60;99.90;;;;;;5041157;28;20503;-56
2023/08/27 08:28:32;;;;;;;5.28;2.95;;;17.60;99.90;;;;;;5053718;28;20021;-58
2023/08/27 08:30:57;;;;;;;4.68;2.92;;;17.60;99.90;;;;;;5040165;28;20392;-57
2023/08/27 08:33:23;;;;;;;8.13;2.67;;;17.60;99.90;;;;;;5047191;28;20083;-55
2023/08/27 08:35:48;;;;;;;7.65;3.33;;;17.70;99.90;;;;;;5042432;28;20537;-56
2023/08/27 08:38:14;;;;;;;3.90;2.97;;;17.50;99.90;;;;;;5037766;28;20625;-56
2023/08/27 08:40:48;;;;;;;4.82;2.40;;;17.50;99.90;;;;;;5040831;28;20053;-57
2023/08/27 08:43:20;;;;;;;6.82;2.53;;;17.50;99.90;;;;;;5036689;28;20036;-57
2023/08/27 08:45:46;;;;;;;4.60;2.67;;;17.60;99.90;;;;;;5040357;28;20037;-55
2023/08/27 08:48:12;;;;;;;8.38;2.88;;;17.60;99.90;;;;;;5035981;28;20025;-54
2023/08/27 08:50:40;;;;;;;8.88;3.05;;;17.60;99.90;;;;;;5040043;28;20021;-54
2023/08/27 08:53:14;;;;;;;4.28;2.00;;;17.80;99.90;;;;;;5038311;28;20091;-58
2023/08/27 08:55:44;;;;;;;8.00;3.28;;;17.80;99.90;;;;;;5042030;28;20427;-56
2023/08/27 08:58:12;;;;;;;4.97;2.50;;;17.80;99.90;;;;;;5034599;28;20052;-58
2023/08/27 09:00:38;;;;;;;5.63;2.97;;;17.80;99.90;;;;;;5033622;28;20033;-57
2023/08/27 09:03:04;;;;;;;5.50;2.50;;;17.70;99.90;;;;;;5033907;28;20036;-57
2023/08/27 09:05:31;;;;;;;6.22;2.92;;;17.90;99.90;;;;;;5036797;28;20403;-54
2023/08/27 09:07:57;;;;;;;7.80;2.90;;;18.00;99.90;;;;;;5039187;28;20090;-54
2023/08/27 09:10:24;;;;;;;4.82;3.28;;;18.10;99.90;;;;;;5049194;28;20033;-56
2023/08/27 09:12:55;;;;;;;6.68;3.22;;;18.10;99.90;;;;;;5040603;28;20388;-57
2023/08/27 09:15:21;;;;;;;4.50;2.80;;;18.20;99.90;;;;;;5040090;28;20052;-57
2023/08/27 09:17:47;;;;;;;9.95;5.03;;;18.20;99.90;;;;;;5040884;28;21902;-57
2023/08/27 09:20:13;;;;;;;6.15;4.25;;;18.10;99.90;;;;;;5030063;28;20030;-55
2023/08/27 09:22:41;;;;;;;5.82;3.30;;;18.10;99.90;;;;;;5036934;28;20032;-55
2023/08/27 09:25:11;;;;;;;9.38;3.85;;;18.30;99.90;;;;;;5044726;28;20044;-55
2023/08/27 09:27:36;;;;;;;5.78;4.00;;;18.30;99.90;;;;;;5039714;28;20083;-56
2023/08/27 09:30:05;;;;;;;6.82;3.53;;;18.20;99.90;;;;;;5039059;28;20091;-57
2023/08/27 09:32:31;;;;;;;7.10;3.20;;;18.30;99.90;;;;;;5037752;28;20052;-57
2023/08/27 09:35:01;;;;;;;7.40;3.00;;;18.20;99.90;;;;;;5038321;28;20052;-54
2023/08/27 09:37:28;;;;;;;6.47;3.42;;;18.20;99.90;;;;;;5039345;28;20053;-55
2023/08/27 09:39:54;;;;;;;6.22;3.13;;;18.30;99.90;;;;;;5032463;28;20025;-59
2023/08/27 09:42:23;;;;;;;5.80;2.85;;;18.30;99.90;;;;;;5034005;28;20491;-57
2023/08/27 09:44:50;;;;;;;4.28;2.75;;;18.30;99.90;;;;;;5034319;28;20491;-54
2023/08/27 09:47:16;;;;;;;7.63;3.10;;;18.30;99.90;;;;;;5027784;28;20029;-57
2023/08/27 09:49:43;;;;;;;5.25;2.90;;;18.30;99.90;;;;;;5032912;28;20040;-56
2023/08/27 09:52:08;;;;;;;6.25;2.90;;;18.50;99.90;;;;;;5037059;28;20013;-58
2023/08/27 09:54:34;;;;;;;7.97;2.30;;;18.80;99.90;;;;;;5035101;28;20466;-54
2023/08/27 09:56:59;;;;;;;5.00;2.30;;;19.10;99.90;;;;;;5036345;28;20021;-55
2023/08/27 09:59:26;;;;;;;4.47;2.88;;;19.40;99.90;;;;;;5042805;28;20036;-56
2023/08/27 10:01:52;;;;;;;10.20;4.32;;;19.40;99.90;;;;;;5039605;28;20041;-60
2023/08/27 10:04:19;;;;;;;8.60;2.97;;;19.40;99.90;;;;;;5032561;28;20029;-55
2023/08/27 10:06:45;;;;;;;4.80;2.67;;;19.60;99.90;;;;;;5040993;28;20025;-59
2023/08/27 10:09:11;;;;;;;6.32;2.70;;;19.80;99.90;;;;;;5045005;28;20029;-58
2023/08/27 10:11:37;;;;;;;4.40;2.65;;;20.10;99.90;;;;;;5040198;28;20042;-57
2023/08/27 10:14:04;;;;;;;4.43;1.90;;;20.40;99.90;;;;;;5040897;28;20411;-57
2023/08/27 10:16:30;;;;;;;4.78;2.25;;;20.50;99.90;;;;;;5037360;28;20041;-59
2023/08/27 10:18:57;;;;;;;4.43;2.33;;;20.70;99.90;;;;;;5039681;28;20033;-57
2023/08/27 10:21:23;;;;;;;6.15;2.33;;;21.00;99.90;;;;;;5037091;28;20036;-57
2023/08/27 10:23:49;;;;;;;4.05;2.05;;;21.10;99.90;;;;;;5039584;28;20130;-54
2023/08/27 10:26:15;;;;;;;4.18;1.90;;;20.80;99.90;;;;;;5042322;28;20029;-56
2023/08/27 10:28:41;;;;;;;4.88;2.00;;;20.10;99.90;;;;;;5038100;28;20063;-54
2023/08/27 10:31:07;;;;;;;3.08;1.77;;;20.00;99.90;;;;;;5044767;28;20017;-56
2023/08/27 10:33:33;;;;;;;5.18;2.05;;;19.80;99.90;;;;;;5039683;28;20045;-56
2023/08/27 10:36:03;;;;;;;3.53;1.60;;;19.70;99.90;;;;;;5032380;28;20029;-55
2023/08/27 10:38:31;;;;;;;2.88;1.40;;;20.00;99.90;;;;;;5036661;28;20102;-54
2023/08/27 10:40:57;;;;;;;3.25;1.20;;;20.10;99.90;;;;;;5040015;28;20025;-58
2023/08/27 10:43:23;;;;;;;3.53;1.40;;;20.10;99.90;;;;;;5034932;28;20041;-58
2023/08/27 10:45:50;;;;;;;3.10;1.77;;;20.00;99.90;;;;;;5037419;28;20406;-57
2023/08/27 10:48:18;;;;;;;4.07;1.27;;;20.10;99.90;;;;;;5038324;28;20025;-58
2023/08/27 10:50:46;;;;;;;4.32;1.23;;;20.10;99.90;;;;;;5033871;28;20042;-53
2023/08/27 10:53:12;;;;;;;7.50;1.58;;;20.00;99.90;;;;;;5034319;28;20026;-53
2023/08/27 10:55:40;;;;;;;1.67;1.17;;;20.00;99.90;;;;;;5041050;28;20448;-56
2023/08/27 10:58:16;;;;;;;3.20;1.33;;;19.70;99.90;;;;;;5039368;28;20021;-58
2023/08/27 11:00:59;;;;;;;6.07;1.10;;;19.90;99.90;;;;;;5041121;28;20395;-58
2023/08/27 11:03:25;;;;;;;4.13;1.40;;;20.20;99.90;;;;;;5037973;28;20036;-53
2023/08/27 11:06:33;;;;;;;5.78;1.70;;;20.50;99.90;;;;;;5039939;28;20413;-56
2023/08/27 11:08:59;;;;;;;4.32;1.63;;;20.80;99.90;;;;;;5027827;28;20056;-57
2023/08/27 11:11:26;;;;;;;4.32;1.60;;;21.20;99.90;;;;;;5045143;28;20047;-57
2023/08/27 11:14:08;;;;;;;4.65;1.48;;;21.50;99.90;;;;;;5048962;28;20029;-58
2023/08/27 11:16:53;;;;;;;1.75;1.27;;;22.00;99.90;;;;;;5043208;28;20036;-56
2023/08/27 11:19:37;;;;;;;4.03;1.52;;;22.40;99.90;;;;;;5043908;28;20057;-56
2023/08/27 11:22:11;;;;;;;2.20;0.93;;;22.20;99.90;;;;;;5037134;28;20048;-53
2023/08/27 11:24:43;;;;;;;2.30;1.10;;;22.20;99.90;;;;;;5049244;28;20090;-53
2023/08/27 11:27:09;;;;;;;3.35;1.30;;;22.40;99.90;;;;;;5046334;28;20049;-55
2023/08/27 11:29:41;;;;;;;4.95;1.42;;;22.20;99.90;;;;;;5046105;28;20025;-59
2023/08/27 11:32:08;;;;;;;1.73;1.00;;;22.10;99.90;;;;;;5041315;28;20116;-54
2023/08/27 11:34:38;;;;;;;1.88;1.00;;;22.20;99.90;;;;;;5041096;28;20033;-56
2023/08/27 11:37:04;;;;;;;1.85;1.02;;;22.40;99.90;;;;;;5043344;28;20029;-54
2023/08/27 11:39:30;;;;;;;2.10;1.10;;;22.70;99.90;;;;;;5038567;28;20029;-54
2023/08/27 11:41:55;;;;;;;5.72;1.58;;;22.90;99.90;;;;;;5038890;28;20102;-53
2023/08/27 11:44:21;;;;;;;1.85;1.20;;;22.50;99.90;;;;;;5042151;28;20036;-53
2023/08/27 11:46:47;;;;;;;5.15;1.35;;;22.60;99.90;;;;;;5044698;28;20017;-56
2023/08/27 11:49:14;;;;;;;2.05;0.98;;;22.80;99.90;;;;;;5050383;28;20047;-54
2023/08/27 11:51:41;;;;;;;3.05;1.40;;;23.10;99.90;;;;;;5047035;28;20018;-53
2023/08/27 11:54:08;;;;;;;2.53;1.00;;;23.30;99.90;;;;;;5042619;28;20029;-56
2023/08/27 11:56:37;;;;;;;2.33;1.13;;;23.40;99.90;;;;;;5044108;28;20041;-55
2023/08/27 11:59:06;;;;;;;3.45;1.23;;;23.10;99.90;;;;;;5043679;28;20151;-59
2023/08/27 12:01:33;;;;;;;2.78;1.20;;;22.60;99.90;;;;;;5043237;28;20117;-54
2023/08/27 12:04:00;;;;;;;2.05;1.05;;;22.50;99.90;;;;;;5043192;28;20626;-54
2023/08/27 12:06:28;;;;;;;5.28;0.95;;;22.40;99.90;;;;;;5040437;28;20403;-54
2023/08/27 12:08:55;;;;;;;3.05;1.10;;;22.50;99.90;;;;;;5040342;28;20045;-55
2023/08/27 12:11:26;;;;;;;3.58;1.10;;;22.40;99.90;;;;;;5037318;28;20125;-53
2023/08/27 12:13:55;;;;;;;1.88;1.02;;;22.90;99.90;;;;;;5040342;28;20080;-53
2023/08/27 12:16:32;;;;;;;3.78;1.00;;;22.90;99.90;;;;;;5037620;28;20549;-56
2023/08/27 12:19:06;;;;;;;6.18;1.17;;;22.30;99.90;;;;;;5043125;28;20034;-55
2023/08/27 12:21:46;;;;;;;3.25;0.95;;;22.10;99.90;;;;;;5040359;28;20032;-57
2023/08/27 12:24:41;;;;;;;2.30;0.80;;;21.90;99.90;;;;;;5042169;28;20088;-56
2023/08/27 12:27:15;;;;;;;2.28;0.85;;;22.00;99.90;;;;;;5044543;28;20445;-55
2023/08/27 12:29:42;;;;;;;2.05;1.05;;;22.50;99.90;;;;;;5045507;28;20034;-53
2023/08/27 12:32:17;;;;;;;3.72;0.88;;;23.10;99.90;;;;;;5038044;28;20034;-53
2023/08/27 12:34:47;;;;;;;2.97;1.00;;;23.70;99.90;;;;;;5037575;28;20025;-54
2023/08/27 12:37:17;;;;;;;1.65;0.82;;;23.90;99.90;;;;;;5042302;28;20075;-55
2023/08/27 12:39:44;;;;;;;4.53;0.80;;;23.70;99.90;;;;;;5047449;28;20025;-56
2023/08/27 12:42:11;;;;;;;2.40;0.95;;;23.40;99.90;;;;;;5042636;28;20030;-56
2023/08/27 12:44:37;;;;;;;2.60;0.80;;;23.00;99.90;;;;;;5041634;28;20053;-56